Time;durP1;ratioP1;P1;durP2;ratioP2;P2;SDS_P1;SDS_P2;PMS_P1;PMS_P2;Temp;Humidity;BMP_temperature;BMP_pressure;BME280_temperature;BME280_humidity;BME280_pressure;Samples;Min_cycle;Max_cycle;Signal;HPM_P1;HPM_P2
2022/01/12 00:01:05;;;;;;;0.00;0.00;;;;;;;-2.58;91.91;100380.66;5034536;28;20234;-59
2022/01/12 00:03:33;;;;;;;0.00;0.00;;;;;;;-2.55;90.77;100382.31;5035024;28;20279;-61
2022/01/12 00:05:59;;;;;;;0.00;0.00;;;;;;;-2.48;90.34;100390.75;5033737;28;20214;-61
2022/01/12 00:08:26;;;;;;;0.00;0.00;;;;;;;-2.52;90.48;100379.72;5034020;28;20649;-60
2022/01/12 00:10:56;;;;;;;0.00;0.00;;;;;;;-2.50;89.96;100383.09;5034846;28;20656;-61
2022/01/12 00:13:24;;;;;;;0.00;0.00;;;;;;;-2.39;89.20;100378.66;5034113;28;20202;-61
2022/01/12 00:15:50;;;;;;;0.00;0.00;;;;;;;-2.35;88.81;100379.47;5033601;28;20541;-61
2022/01/12 00:18:18;;;;;;;0.00;0.00;;;;;;;-2.33;88.96;100385.41;5036204;28;20187;-60
2022/01/12 00:20:45;;;;;;;0.03;0.03;;;;;;;-2.36;88.71;100385.44;5034855;28;20206;-61
2022/01/12 00:23:12;;;;;;;0.00;0.00;;;;;;;-2.45;89.45;100385.59;5033021;28;20295;-59
2022/01/12 00:25:57;;;;;;;0.00;0.00;;;;;;;-2.49;89.21;100389.06;5033994;28;20238;-60
2022/01/12 00:34:07;;;;;;;0.00;0.00;;;;;;;-2.58;90.74;100398.56;4970382;28;20204;-59
2022/01/12 00:36:34;;;;;;;0.00;0.00;;;;;;;-2.67;90.98;100388.47;5004576;28;20211;-60
2022/01/12 00:39:04;;;;;;;0.00;0.00;;;;;;;-2.70;91.36;100391.94;5014042;28;20219;-60
2022/01/12 00:41:30;;;;;;;0.00;0.00;;;;;;;-2.60;91.84;100395.19;5012825;28;20851;-61
2022/01/12 00:43:59;;;;;;;0.00;0.00;;;;;;;-2.51;91.88;100386.50;5013921;28;20237;-61
2022/01/12 00:46:27;;;;;;;0.00;0.00;;;;;;;-2.21;89.22;100386.06;5012099;28;20303;-60
2022/01/12 00:48:55;;;;;;;0.00;0.00;;;;;;;-2.29;88.46;100389.59;5012624;28;20583;-60
2022/01/12 00:51:26;;;;;;;0.00;0.00;;;;;;;-2.22;88.20;100382.66;5012832;28;20202;-59
2022/01/12 00:53:53;;;;;;;0.00;0.00;;;;;;;-2.25;88.09;100387.81;5012826;28;20198;-60
2022/01/12 00:56:20;;;;;;;0.00;0.00;;;;;;;-2.20;87.92;100386.03;5009947;28;20218;-62
2022/01/12 00:58:46;;;;;;;0.03;0.03;;;;;;;-2.27;87.75;100390.41;5027429;28;20204;-60
2022/01/12 01:01:13;;;;;;;0.00;0.00;;;;;;;-2.37;87.78;100392.25;5027942;28;20246;-60
2022/01/12 01:03:41;;;;;;;0.00;0.00;;;;;;;-2.44;88.27;100390.66;5012484;28;20200;-61
2022/01/12 01:06:10;;;;;;;0.00;0.00;;;;;;;-2.44;88.62;100395.78;5011286;28;20222;-60
2022/01/12 01:08:39;;;;;;;0.00;0.00;;;;;;;-2.46;88.80;100397.53;5011898;28;20199;-61
2022/01/12 01:11:07;;;;;;;0.00;0.00;;;;;;;-2.40;88.48;100389.75;5028852;28;20560;-61
2022/01/12 01:13:42;;;;;;;0.00;0.00;;;;;;;-2.40;88.45;100394.88;5012107;28;20201;-60
2022/01/12 01:16:16;;;;;;;0.00;0.00;;;;;;;-2.35;88.28;100384.56;5012632;28;20680;-60
2022/01/12 01:27:19;;;;;;;0.00;0.00;;;;;;;-2.38;87.30;100372.66;4936214;29;20223;-60
2022/01/12 01:29:47;;;;;;;0.00;0.00;;;;;;;-2.40;87.05;100383.81;5007302;28;20209;-60
2022/01/12 01:32:14;;;;;;;0.00;0.00;;;;;;;-2.47;88.08;100380.47;5024622;28;20213;-60
2022/01/12 01:34:46;;;;;;;0.00;0.00;;;;;;;-2.44;87.86;100380.44;5027146;28;20219;-59
2022/01/12 01:37:15;;;;;;;0.00;0.00;;;;;;;-2.48;87.33;100386.47;5031279;28;20277;-59
2022/01/12 01:39:46;;;;;;;0.00;0.00;;;;;;;-2.47;87.66;100385.59;5031244;28;20213;-59
2022/01/12 01:42:18;;;;;;;0.00;0.00;;;;;;;-2.56;88.12;100398.53;5031837;28;20198;-60
2022/01/12 01:55:45;;;;;;;0.00;0.00;;;;;;;-2.86;91.22;100416.84;5029739;28;20221;-60
2022/01/12 01:58:14;;;;;;;0.00;0.00;;;;;;;-2.92;91.76;100424.59;5031363;28;20543;-59
2022/01/12 02:00:42;;;;;;;0.00;0.00;;;;;;;-2.91;91.59;100426.28;5030238;28;20248;-59
2022/01/12 02:03:14;;;;;;;0.00;0.00;;;;;;;-2.91;92.08;100433.97;5029558;28;20194;-60
2022/01/12 02:05:46;;;;;;;0.00;0.00;;;;;;;-3.08;91.83;100431.63;5030487;28;20306;-60
2022/01/12 02:08:13;;;;;;;0.00;0.00;;;;;;;-3.12;92.56;100433.38;5031387;28;20273;-60
2022/01/12 02:10:54;;;;;;;0.00;0.00;;;;;;;-3.11;92.72;100442.72;5029687;28;20187;-60
2022/01/12 02:13:20;;;;;;;0.00;0.00;;;;;;;-3.19;92.64;100436.03;5029921;28;20661;-59
2022/01/12 02:15:48;;;;;;;0.00;0.00;;;;;;;-3.22;93.11;100436.06;5030456;28;20214;-60
2022/01/12 02:18:20;;;;;;;0.10;0.10;;;;;;;-3.25;93.00;100434.41;5032213;28;20187;-60
2022/01/12 02:40:20;;;;;;;0.03;0.03;;;;;;;-3.00;92.46;100401.72;5031352;28;20218;-60
2022/01/12 02:42:56;;;;;;;0.00;0.00;;;;;;;-3.06;92.47;100401.81;5030523;28;20726;-60
2022/01/12 02:50:57;;;;;;;0.00;0.00;;;;;;;-3.26;93.01;100397.78;5000067;28;20197;-60
2022/01/12 02:53:40;;;;;;;0.00;0.00;;;;;;;-3.22;93.04;100397.75;5030476;28;20191;-59
2022/01/12 02:56:09;;;;;;;0.00;0.00;;;;;;;-3.29;93.07;100399.56;5028665;28;20265;-60
2022/01/12 02:58:37;;;;;;;0.00;0.00;;;;;;;-3.32;93.04;100402.97;5029386;28;20252;-60
2022/01/12 03:03:48;;;;;;;0.00;0.00;;;;;;;-3.33;94.43;100403.00;5027873;28;20218;-61
2022/01/12 03:06:18;;;;;;;0.00;0.00;;;;;;;-3.28;94.69;100402.06;5028748;28;20218;-59
2022/01/12 03:08:47;;;;;;;0.00;0.00;;;;;;;-3.21;93.98;100402.00;5029776;28;20530;-60
2022/01/12 03:11:16;;;;;;;0.00;0.00;;;;;;;-3.17;94.75;100401.94;5031103;28;20183;-60
2022/01/12 03:13:44;;;;;;;0.00;0.00;;;;;;;-3.18;93.93;100405.34;5029620;28;20256;-60
2022/01/12 03:16:14;;;;;;;0.00;0.00;;;;;;;-3.15;93.41;100407.84;5032222;28;20712;-59
2022/01/12 03:18:42;;;;;;;0.00;0.00;;;;;;;-3.24;92.54;100418.22;5030234;28;20230;-59
2022/01/12 03:21:09;;;;;;;0.00;0.00;;;;;;;-3.31;92.53;100424.25;5030095;28;20221;-52
2022/01/12 03:23:38;;;;;;;0.00;0.00;;;;;;;-3.34;93.05;100426.84;5029670;28;20194;-60
2022/01/12 03:26:08;;;;;;;0.00;0.00;;;;;;;-3.33;93.00;100426.00;5028720;28;20249;-61
2022/01/12 03:28:37;;;;;;;0.00;0.00;;;;;;;-3.36;92.96;100433.69;5029508;28;20229;-61
2022/01/12 03:31:13;;;;;;;0.00;0.00;;;;;;;-3.38;93.21;100436.25;5029663;28;20739;-60
2022/01/12 03:36:55;;;;;;;0.00;0.00;;;;;;;-3.42;93.89;100443.09;5012453;28;20202;-60
2022/01/12 03:39:22;;;;;;;0.00;0.00;;;;;;;-3.44;94.41;100442.28;5030100;28;20198;-61
2022/01/12 03:41:50;;;;;;;0.00;0.00;;;;;;;-3.43;94.76;100441.41;5029419;28;20221;-60
2022/01/12 03:44:18;;;;;;;0.00;0.00;;;;;;;-3.47;95.23;100439.75;5029295;28;20289;-59
2022/01/12 03:46:48;;;;;;;0.00;0.00;;;;;;;-3.54;95.41;100430.47;5030125;28;20232;-61
2022/01/12 03:49:19;;;;;;;0.00;0.00;;;;;;;-3.58;95.96;100418.59;5029943;28;20201;-60
2022/01/12 03:51:47;;;;;;;0.00;0.00;;;;;;;-3.46;95.90;100412.50;5029626;28;20218;-61
2022/01/12 03:54:15;;;;;;;0.00;0.00;;;;;;;-3.41;95.40;100411.59;5025821;28;20256;-59
2022/01/12 03:56:42;;;;;;;0.00;0.00;;;;;;;-3.34;95.47;100408.97;5023434;28;20203;-60
2022/01/12 03:59:10;;;;;;;0.00;0.00;;;;;;;-3.25;94.89;100406.31;5020556;28;20200;-60
2022/01/12 04:01:38;;;;;;;0.00;0.00;;;;;;;-3.24;93.82;100402.91;5026616;28;20218;-61
2022/01/12 04:04:09;;;;;;;0.00;0.00;;;;;;;-3.14;92.76;100401.88;5025760;28;20196;-59
2022/01/12 04:09:21;;;;;;;0.00;0.00;;;;;;;-3.20;92.85;100408.78;5009098;28;20334;-60
2022/01/12 04:11:48;;;;;;;0.00;0.00;;;;;;;-3.23;93.26;100411.38;5025837;28;20197;-61
2022/01/12 04:14:16;;;;;;;0.00;0.00;;;;;;;-3.27;92.59;100410.59;5024622;28;20253;-60
2022/01/12 04:16:44;;;;;;;0.00;0.00;;;;;;;-3.34;92.26;100407.25;5025109;28;20202;-60
2022/01/12 04:19:11;;;;;;;0.00;0.00;;;;;;;-3.40;92.23;100409.88;5009604;28;20629;-60
2022/01/12 04:21:43;;;;;;;0.00;0.00;;;;;;;-3.44;91.32;100405.66;5024569;28;20774;-60
2022/01/12 04:24:10;;;;;;;0.00;0.00;;;;;;;-3.48;91.63;100417.63;5028176;28;20291;-60
2022/01/12 04:26:37;;;;;;;0.00;0.00;;;;;;;-3.51;91.95;100406.59;5029731;28;20213;-60
2022/01/12 04:29:04;;;;;;;0.00;0.00;;;;;;;-3.51;91.44;100420.22;5029857;28;20187;-61
2022/01/12 04:31:32;;;;;;;0.00;0.00;;;;;;;-3.50;92.11;100427.03;5030727;28;20195;-60
2022/01/12 04:33:59;;;;;;;0.00;0.00;;;;;;;-3.58;91.54;100436.47;5027930;28;20199;-61
2022/01/12 04:36:26;;;;;;;0.10;0.10;;;;;;;-3.69;91.97;100434.00;5018919;28;20823;-60
2022/01/12 04:38:53;;;;;;;0.00;0.00;;;;;;;-3.77;92.32;100431.53;5012604;28;20287;-60
2022/01/12 04:41:24;;;;;;;0.00;0.00;;;;;;;-3.81;92.54;100432.44;5012397;28;20223;-61
2022/01/12 04:43:52;;;;;;;0.00;0.00;;;;;;;-3.80;92.36;100426.47;5013798;28;20612;-61
2022/01/12 04:46:29;;;;;;;0.00;0.00;;;;;;;-3.82;93.01;100432.47;5013670;28;20210;-61
2022/01/12 04:49:27;;;;;;;0.07;0.07;;;;;;;-3.82;92.55;100440.13;5012986;28;20191;-60
2022/01/12 04:51:54;;;;;;;0.00;0.00;;;;;;;-3.74;93.63;100457.03;5012110;28;20199;-60
2022/01/12 04:54:21;;;;;;;0.00;0.00;;;;;;;-3.66;93.56;100458.66;5009369;28;20206;-59
2022/01/12 04:56:48;;;;;;;0.00;0.00;;;;;;;-3.80;93.43;100464.75;5010757;28;20553;-60
2022/01/12 04:59:16;;;;;;;0.00;0.00;;;;;;;-3.87;93.89;100468.22;5012855;28;20262;-60
2022/01/12 05:01:51;;;;;;;0.00;0.00;;;;;;;-3.82;94.14;100470.75;5012203;28;20221;-60
2022/01/12 05:12:47;;;;;;;0.00;0.00;;;;;;;-3.78;93.82;100480.91;5008603;28;20213;-60
2022/01/12 05:12:52;;;;;;;0.00;0.00;;;;;;;-3.84;93.82;100480.13;5011231;28;20632;-60
2022/01/12 05:15:28;;;;;;;0.00;0.00;;;;;;;-3.85;93.84;100479.25;5010769;28;20772;-60
2022/01/12 05:17:56;;;;;;;0.00;0.00;;;;;;;-3.89;94.04;100491.22;5012141;28;20509;-60
2022/01/12 05:20:26;;;;;;;0.00;0.00;;;;;;;-3.81;93.85;100493.69;5011724;28;20205;-60
2022/01/12 05:22:53;;;;;;;0.00;0.00;;;;;;;-3.90;92.83;100486.97;5016518;28;20288;-61
2022/01/12 05:25:21;;;;;;;0.00;0.00;;;;;;;-3.95;92.82;100482.75;5031063;28;20252;-60
2022/01/12 05:27:48;;;;;;;0.00;0.00;;;;;;;-3.85;93.05;100486.91;5032216;28;20678;-58
2022/01/12 05:30:18;;;;;;;0.00;0.00;;;;;;;-3.95;93.55;100483.59;5031489;28;20194;-60
2022/01/12 05:32:47;;;;;;;0.00;0.00;;;;;;;-3.91;93.80;100476.75;5031670;28;20248;-60
2022/01/12 05:35:17;;;;;;;0.00;0.00;;;;;;;-3.92;92.86;100475.06;5029695;28;20245;-61
2022/01/12 05:37:46;;;;;;;0.00;0.00;;;;;;;-3.96;92.27;100478.50;5022347;28;20202;-60
2022/01/12 05:40:14;;;;;;;0.00;0.00;;;;;;;-4.03;92.22;100478.53;5031452;28;20224;-61
2022/01/12 05:42:43;;;;;;;0.00;0.00;;;;;;;-3.92;92.08;100481.03;5030204;28;21008;-61
2022/01/12 05:45:11;;;;;;;0.00;0.00;;;;;;;-3.94;92.20;100490.41;5030660;28;20296;-60
2022/01/12 05:49:33;;;;;;;0.00;0.00;;;;;;;-3.97;93.03;100497.22;5030990;28;20198;-61
2022/01/12 05:50:31;;;;;;;0.00;0.00;;;;;;;-4.06;93.39;100493.88;5030408;28;20190;-60
2022/01/12 05:53:15;;;;;;;0.00;0.00;;;;;;;-4.10;93.97;100487.09;5028582;28;20824;-60
2022/01/12 05:55:44;;;;;;;0.00;0.00;;;;;;;-4.13;93.83;100487.13;5029209;28;20220;-60
2022/01/12 05:58:12;;;;;;;0.10;0.10;;;;;;;-4.18;94.32;100493.97;5030323;28;20204;-60
2022/01/12 06:00:40;;;;;;;0.00;0.00;;;;;;;-4.04;94.67;100497.25;5025900;28;20249;-60
2022/01/12 06:03:08;;;;;;;0.00;0.00;;;;;;;-3.98;94.30;100498.06;5030187;28;20217;-60
2022/01/12 06:05:35;;;;;;;0.00;0.00;;;;;;;-4.05;94.16;100508.31;5028439;28;20214;-60
2022/01/12 06:08:02;;;;;;;0.00;0.00;;;;;;;-4.07;94.21;100515.13;5027089;28;20225;-61
2022/01/12 06:10:33;;;;;;;0.00;0.00;;;;;;;-4.07;94.04;100515.13;5028662;28;20238;-60
2022/01/12 06:13:00;;;;;;;0.00;0.00;;;;;;;-4.17;94.47;100519.47;5030394;28;20240;-60
2022/01/12 06:15:27;;;;;;;0.00;0.00;;;;;;;-4.21;95.14;100524.59;5031255;28;20209;-60
2022/01/12 06:17:53;;;;;;;0.00;0.00;;;;;;;-4.18;95.52;100522.00;5031341;28;20196;-59
2022/01/12 06:20:20;;;;;;;0.00;0.00;;;;;;;-4.25;95.66;100522.94;5030492;28;20687;-59
2022/01/12 06:23:09;;;;;;;0.00;0.00;;;;;;;-4.19;96.18;100531.38;5030065;28;20271;-59
2022/01/12 06:25:42;;;;;;;0.00;0.00;;;;;;;-4.17;95.31;100518.59;5029553;28;20804;-61
2022/01/12 06:28:36;;;;;;;0.03;0.03;;;;;;;-4.15;94.18;100524.53;5030519;28;20229;-61
2022/01/12 06:31:11;;;;;;;0.07;0.07;;;;;;;-4.04;94.01;100527.03;5031710;28;20681;-61
2022/01/12 06:33:38;;;;;;;0.10;0.10;;;;;;;-4.18;94.22;100520.34;5031081;28;20194;-61
2022/01/12 06:36:05;;;;;;;0.00;0.00;;;;;;;-4.24;94.31;100515.28;5030512;28;20284;-60
2022/01/12 06:38:32;;;;;;;0.00;0.00;;;;;;;-4.28;94.82;100512.75;5017999;28;20225;-61
2022/01/12 06:41:01;;;;;;;0.00;0.00;;;;;;;-4.27;94.33;100515.28;5010120;28;20699;-60
2022/01/12 06:43:28;;;;;;;0.00;0.00;;;;;;;-4.27;94.86;100511.91;5010025;28;20200;-60
2022/01/12 06:45:56;;;;;;;0.10;0.10;;;;;;;-4.27;94.85;100515.28;5009422;28;20215;-60
2022/01/12 06:48:23;;;;;;;0.10;0.10;;;;;;;-4.34;93.83;100509.41;5009521;28;20249;-60
2022/01/12 06:50:50;;;;;;;0.00;0.00;;;;;;;-4.40;94.11;100501.78;5010293;28;20199;-61
2022/01/12 06:53:17;;;;;;;0.00;0.00;;;;;;;-4.39;94.24;100502.63;5008108;28;20696;-59
2022/01/12 06:55:44;;;;;;;0.00;0.00;;;;;;;-4.33;94.93;100500.88;5007963;28;20709;-61
2022/01/12 06:58:13;;;;;;;0.00;0.00;;;;;;;-4.23;94.96;100503.34;5009068;28;20202;-60
2022/01/12 07:00:40;;;;;;;0.00;0.00;;;;;;;-4.18;93.70;100504.16;5010801;28;20293;-60
2022/01/12 07:03:09;;;;;;;0.10;0.10;;;;;;;-4.19;93.30;100513.53;5009230;28;20236;-61
2022/01/12 07:05:43;;;;;;;0.00;0.00;;;;;;;-4.28;92.76;100505.94;5009404;28;20222;-61
2022/01/12 07:08:10;;;;;;;0.00;0.00;;;;;;;-4.33;93.03;100498.34;5009730;28;20696;-59
2022/01/12 07:10:41;;;;;;;0.00;0.00;;;;;;;-4.35;93.81;100505.16;5009863;28;20193;-61
2022/01/12 07:13:17;;;;;;;0.00;0.00;;;;;;;-4.16;94.29;100510.97;5010274;28;20189;-60
2022/01/12 07:15:46;;;;;;;0.00;0.00;;;;;;;-4.11;93.77;100513.47;5008948;28;20221;-60
2022/01/12 07:18:14;;;;;;;0.10;0.10;;;;;;;-4.20;94.11;100516.94;5009117;28;20285;-61
2022/01/12 07:20:43;;;;;;;0.00;0.00;;;;;;;-4.22;94.49;100517.78;5009968;28;20284;-61
2022/01/12 07:23:11;;;;;;;0.00;0.00;;;;;;;-4.21;95.14;100524.59;5018254;28;20217;-60
2022/01/12 07:25:38;;;;;;;0.00;0.00;;;;;;;-4.24;95.55;100528.03;5029674;28;20205;-61
2022/01/12 07:28:05;;;;;;;0.10;0.10;;;;;;;-4.21;94.94;100535.66;5031114;28;20599;-60
2022/01/12 07:30:33;;;;;;;0.07;0.07;;;;;;;-4.21;94.34;100542.44;5030915;28;20212;-61
2022/01/12 07:33:00;;;;;;;0.00;0.00;;;;;;;-4.15;94.36;100561.13;5030065;28;20190;-61
2022/01/12 07:35:27;;;;;;;0.00;0.00;;;;;;;-4.23;93.78;100574.75;5029589;28;20217;-59
2022/01/12 07:37:53;;;;;;;0.00;0.00;;;;;;;-4.27;93.34;100584.13;5026795;28;20216;-61
2022/01/12 07:40:20;;;;;;;0.00;0.00;;;;;;;-4.33;93.78;100590.13;5024207;28;20906;-60
2022/01/12 07:42:47;;;;;;;0.00;0.00;;;;;;;-4.20;94.58;100603.66;5029842;28;21001;-61
2022/01/12 07:45:17;;;;;;;0.00;0.00;;;;;;;-4.18;94.55;100616.38;5027652;28;20214;-61
2022/01/12 07:47:45;;;;;;;0.10;0.10;;;;;;;-4.09;95.19;100615.50;5029236;28;20187;-59
2022/01/12 07:50:12;;;;;;;0.10;0.10;;;;;;;-4.04;95.22;100627.34;5029765;28;20196;-60
2022/01/12 07:52:39;;;;;;;0.00;0.00;;;;;;;-3.89;95.40;100645.97;5030111;28;20182;-60
2022/01/12 07:55:07;;;;;;;0.00;0.00;;;;;;;-3.84;94.27;100641.69;5026922;28;20228;-59
2022/01/12 07:57:34;;;;;;;0.00;0.00;;;;;;;-3.83;93.97;100643.41;5029312;28;20285;-60
2022/01/12 08:00:02;;;;;;;0.00;0.00;;;;;;;-3.81;94.29;100653.63;5029837;28;20820;-59
2022/01/12 08:02:38;;;;;;;0.00;0.00;;;;;;;-3.77;94.24;100643.38;5029986;28;20770;-60
2022/01/12 08:05:08;;;;;;;0.00;0.00;;;;;;;-3.78;94.34;100630.63;5029159;28;20229;-60
2022/01/12 08:07:36;;;;;;;0.00;0.00;;;;;;;-3.70;94.26;100646.72;5029267;28;20321;-60
2022/01/12 08:10:04;;;;;;;0.00;0.00;;;;;;;-3.63;93.87;100644.97;5029390;28;20255;-60
2022/01/12 08:12:31;;;;;;;0.00;0.00;;;;;;;-3.59;94.00;100641.53;5033627;28;20193;-59
2022/01/12 08:14:58;;;;;;;0.00;0.00;;;;;;;-3.60;94.07;100644.97;5032428;28;20209;-59
2022/01/12 08:17:25;;;;;;;0.00;0.00;;;;;;;-3.54;92.92;100644.91;5033153;28;20676;-60
2022/01/12 08:19:54;;;;;;;0.00;0.00;;;;;;;-3.55;93.03;100643.22;5033085;28;20276;-60
2022/01/12 08:22:22;;;;;;;0.00;0.00;;;;;;;-3.54;93.35;100637.25;5031942;28;20646;-59
2022/01/12 08:24:49;;;;;;;0.00;0.00;;;;;;;-3.53;93.91;100632.97;5032328;28;20244;-60
2022/01/12 08:27:16;;;;;;;0.00;0.00;;;;;;;-3.49;94.11;100632.97;5027823;28;20199;-59
2022/01/12 08:29:43;;;;;;;0.00;0.00;;;;;;;-3.50;93.78;100632.97;5033812;28;20272;-60
2022/01/12 08:32:10;;;;;;;0.00;0.00;;;;;;;-3.43;93.86;100632.06;5033258;28;20189;-60
2022/01/12 08:34:37;;;;;;;0.00;0.00;;;;;;;-3.37;94.21;100626.06;5032615;28;20209;-59
2022/01/12 08:37:04;;;;;;;0.00;0.00;;;;;;;-3.36;93.89;100626.03;5033724;28;20202;-60
2022/01/12 08:39:34;;;;;;;0.10;0.10;;;;;;;-3.33;93.81;100626.00;5026592;28;20578;-60
2022/01/12 08:42:00;;;;;;;0.00;0.00;;;;;;;-3.28;93.10;100637.03;5031034;28;20801;-60
2022/01/12 08:44:27;;;;;;;0.00;0.00;;;;;;;-3.29;93.14;100639.63;5033027;28;20200;-60
2022/01/12 08:46:54;;;;;;;0.00;0.00;;;;;;;-3.26;93.26;100660.88;5032674;28;20197;-60
2022/01/12 08:49:21;;;;;;;0.00;0.00;;;;;;;-3.22;93.07;100671.91;5033672;28;20177;-58
2022/01/12 08:51:48;;;;;;;0.00;0.00;;;;;;;-3.17;93.68;100676.97;5033421;28;20186;-60
2022/01/12 08:54:15;;;;;;;0.00;0.00;;;;;;;-3.12;93.83;100678.63;5031623;28;20203;-59
2022/01/12 08:56:43;;;;;;;0.00;0.00;;;;;;;-3.07;93.87;100681.16;5032711;28;20196;-60
2022/01/12 08:59:11;;;;;;;0.00;0.00;;;;;;;-3.07;92.59;100681.16;5032554;28;20202;-60
2022/01/12 09:01:39;;;;;;;0.00;0.00;;;;;;;-3.02;91.72;100691.31;5032948;28;20189;-60
2022/01/12 09:04:07;;;;;;;0.00;0.00;;;;;;;-3.04;91.32;100696.44;5032984;28;20302;-59
2022/01/12 09:06:35;;;;;;;0.00;0.00;;;;;;;-3.01;91.26;100700.66;5031770;28;20202;-60
2022/01/12 09:09:05;;;;;;;0.00;0.00;;;;;;;-3.00;91.64;100710.91;5032963;28;20233;-59
2022/01/12 09:11:32;;;;;;;0.00;0.00;;;;;;;-2.95;91.64;100703.19;5032818;28;20201;-59
2022/01/12 09:14:01;;;;;;;0.00;0.00;;;;;;;-2.89;91.11;100709.97;5032374;28;20591;-59
2022/01/12 09:16:27;;;;;;;0.00;0.00;;;;;;;-2.82;90.75;100709.88;5032515;28;20767;-59
2022/01/12 09:18:54;;;;;;;0.00;0.00;;;;;;;-2.71;90.65;100714.91;5031632;28;20198;-60
2022/01/12 09:21:22;;;;;;;0.00;0.00;;;;;;;-2.59;89.66;100713.06;5033052;28;20187;-59
2022/01/12 09:23:49;;;;;;;0.00;0.00;;;;;;;-2.52;90.00;100719.81;5031631;28;21091;-59
2022/01/12 09:26:16;;;;;;;0.00;0.00;;;;;;;-2.43;89.73;100717.16;5031928;28;20202;-59
2022/01/12 09:28:43;;;;;;;0.00;0.00;;;;;;;-2.33;89.90;100707.69;5032361;28;20284;-59
2022/01/12 09:31:11;;;;;;;0.00;0.00;;;;;;;-2.22;90.00;100697.31;5032188;28;20214;-59
2022/01/12 09:33:38;;;;;;;0.00;0.00;;;;;;;-2.12;89.55;100714.25;5032938;28;20193;-58
2022/01/12 09:36:05;;;;;;;0.00;0.00;;;;;;;-2.18;88.36;100734.81;5030092;28;20299;-59
2022/01/12 09:38:33;;;;;;;0.00;0.00;;;;;;;-2.06;87.53;100738.09;5032229;28;20278;-59
2022/01/12 09:41:02;;;;;;;0.00;0.00;;;;;;;-1.98;87.17;100736.28;5022740;28;20196;-59
2022/01/12 09:43:32;;;;;;;0.00;0.00;;;;;;;-1.90;86.94;100723.38;5032810;28;20726;-60
2022/01/12 09:45:59;;;;;;;0.00;0.00;;;;;;;-1.85;86.82;100729.28;5031168;28;20208;-58
2022/01/12 09:48:33;;;;;;;0.00;0.00;;;;;;;-1.75;86.10;100738.53;5024322;28;20192;-60
2022/01/12 09:51:04;;;;;;;0.00;0.00;;;;;;;-1.68;85.63;100742.72;5021301;28;20190;-60
2022/01/12 09:53:32;;;;;;;0.00;0.00;;;;;;;-1.60;85.23;100760.56;5021219;28;20271;-60
2022/01/12 09:55:59;;;;;;;0.00;0.00;;;;;;;-1.49;85.67;100768.91;5021102;28;20687;-59
2022/01/12 09:58:32;;;;;;;0.00;0.00;;;;;;;-1.42;83.95;100753.47;5023469;28;20705;-60
2022/01/12 10:01:01;;;;;;;0.00;0.00;;;;;;;-1.30;83.40;100758.41;5021362;28;20191;-59
2022/01/12 10:03:30;;;;;;;0.00;0.00;;;;;;;-1.22;82.89;100760.88;5021122;28;20218;-60
2022/01/12 10:05:56;;;;;;;0.00;0.00;;;;;;;-1.15;82.23;100759.91;5031344;28;20294;-59
2022/01/12 10:08:23;;;;;;;0.00;0.00;;;;;;;-1.03;81.35;100769.13;5031633;28;20286;-60
2022/01/12 10:11:03;;;;;;;0.00;0.00;;;;;;;-1.06;80.68;100759.75;5032725;28;20223;-60
2022/01/12 10:13:31;;;;;;;0.00;0.00;;;;;;;-0.99;81.24;100764.78;5030374;28;20195;-59
2022/01/12 10:15:58;;;;;;;0.00;0.00;;;;;;;-1.04;82.07;100775.13;5031045;28;20302;-60
2022/01/12 10:18:24;;;;;;;0.00;0.00;;;;;;;-0.95;82.00;100774.97;5030653;28;20661;-60
2022/01/12 10:20:53;;;;;;;0.00;0.00;;;;;;;-0.93;81.92;100765.53;5025467;28;20192;-59
2022/01/12 10:23:23;;;;;;;0.00;0.00;;;;;;;-0.92;80.53;100758.69;5030859;28;20235;-60
2022/01/12 10:25:50;;;;;;;0.00;0.00;;;;;;;-0.86;80.63;100756.03;5023411;28;20879;-60
2022/01/12 10:28:20;;;;;;;0.00;0.00;;;;;;;-0.77;80.93;100755.88;5019102;28;20271;-60
2022/01/12 10:30:55;;;;;;;0.00;0.00;;;;;;;-0.71;81.26;100749.81;5020825;28;20203;-60
2022/01/12 10:33:25;;;;;;;0.00;0.00;;;;;;;-0.61;80.98;100756.47;5019737;28;20216;-60
2022/01/12 10:35:58;;;;;;;0.00;0.00;;;;;;;-0.61;80.07;100760.75;5020161;28;20689;-60
2022/01/12 10:38:25;;;;;;;0.00;0.00;;;;;;;-0.57;79.90;100759.00;5023895;28;20723;-60
2022/01/12 10:40:54;;;;;;;0.00;0.00;;;;;;;-0.53;79.38;100765.75;5024959;28;20184;-60
2022/01/12 10:43:28;;;;;;;0.00;0.00;;;;;;;-0.45;78.51;100764.75;5021785;28;20247;-60
2022/01/12 10:45:56;;;;;;;0.00;0.00;;;;;;;-0.43;77.90;100759.56;5020019;28;20214;-60
2022/01/12 10:48:25;;;;;;;0.00;0.00;;;;;;;-0.35;78.64;100760.28;5022062;28;20278;-60
2022/01/12 10:50:57;;;;;;;0.00;0.00;;;;;;;-0.37;78.17;100753.50;5021170;28;20180;-60
2022/01/12 10:53:28;;;;;;;0.00;0.00;;;;;;;-0.30;78.49;100748.19;5019721;28;20241;-60
2022/01/12 10:56:07;;;;;;;0.00;0.00;;;;;;;-0.26;78.74;100743.00;5019367;28;20697;-59
2022/01/12 10:58:34;;;;;;;0.00;0.00;;;;;;;-0.15;77.74;100746.22;5021160;28;20278;-60
2022/01/12 11:01:01;;;;;;;0.00;0.00;;;;;;;-0.20;76.10;100753.16;5017502;28;20192;-60
2022/01/12 11:03:28;;;;;;;0.00;0.00;;;;;;;-0.08;76.95;100746.97;5018566;28;20215;-59
2022/01/12 11:05:57;;;;;;;0.00;0.00;;;;;;;-0.02;76.16;100749.41;5015421;28;20298;-60
2022/01/12 11:08:25;;;;;;;0.00;0.00;;;;;;;-0.06;77.62;100743.47;5016053;28;20210;-60
2022/01/12 11:10:54;;;;;;;0.00;0.00;;;;;;;-0.04;77.69;100744.28;5022175;28;20186;-59
2022/01/12 11:13:21;;;;;;;0.00;0.00;;;;;;;-0.06;78.61;100753.75;5021768;28;20656;-59
2022/01/12 11:15:48;;;;;;;0.00;0.00;;;;;;;0.01;77.63;100735.66;5017266;28;20215;-60
2022/01/12 11:18:17;;;;;;;0.00;0.00;;;;;;;-0.04;78.14;100730.63;5020622;28;20215;-61
2022/01/12 11:20:47;;;;;;;0.00;0.00;;;;;;;-0.05;78.64;100728.94;5018306;28;20208;-59
2022/01/12 11:23:17;;;;;;;0.00;0.00;;;;;;;-0.01;77.95;100722.84;5021619;28;20617;-60
2022/01/12 11:33:11;;;;;;;0.00;0.00;;;;;;;0.26;77.58;100711.16;5677098;22;20235;-58
2022/01/12 11:35:42;;;;;;;0.00;0.00;;;;;;;0.37;76.85;100708.31;5027833;28;20238;-62
2022/01/12 12:18:41;;;;;;;0.00;0.00;;;;;;;0.79;74.28;100675.69;5008149;28;20225;-61
2022/01/12 12:21:09;;;;;;;0.00;0.00;;;;;;;0.79;73.91;100679.09;5005387;28;20211;-62
2022/01/12 12:26:19;;;;;;;0.00;0.00;;;;;;;0.76;73.66;100694.59;5469356;23;20228;-56
2022/01/12 12:28:53;;;;;;;0.00;0.00;;;;;;;0.82;74.11;100691.03;4999030;28;20203;-60
2022/01/12 12:31:24;;;;;;;0.00;0.00;;;;;;;0.89;74.73;100697.72;4995584;28;20737;-55
2022/01/12 12:34:04;;;;;;;0.00;0.00;;;;;;;0.94;73.34;100701.03;4990962;28;20248;-59
2022/01/12 12:36:31;;;;;;;0.00;0.00;;;;;;;0.97;72.77;100702.66;4990202;28;20272;-56
2022/01/12 12:39:07;;;;;;;0.00;0.00;;;;;;;0.92;73.12;100694.22;4986608;28;20680;-58
2022/01/12 12:41:42;;;;;;;0.00;0.00;;;;;;;0.94;73.31;100705.31;4984842;28;20681;-56
2022/01/12 12:44:21;;;;;;;0.00;0.00;;;;;;;0.96;73.53;100706.97;4984926;28;20292;-57
2022/01/12 12:46:49;;;;;;;0.00;0.00;;;;;;;1.05;72.38;100697.34;4984356;28;20258;-57
2022/01/12 12:49:18;;;;;;;0.00;0.00;;;;;;;1.12;72.44;100706.56;5085414;22;20234;-60
2022/01/12 12:51:45;;;;;;;0.00;0.00;;;;;;;1.15;72.99;100701.34;5025273;28;20322;-61
2022/01/12 12:54:13;;;;;;;0.00;0.00;;;;;;;1.17;72.65;100691.84;5030470;28;20222;-61
2022/01/12 12:56:47;;;;;;;0.00;0.00;;;;;;;1.27;71.72;100695.06;5032271;28;20716;-60
2022/01/12 12:59:15;;;;;;;0.00;0.00;;;;;;;1.25;71.58;100700.22;5033006;28;20231;-61
2022/01/12 13:01:41;;;;;;;0.00;0.00;;;;;;;1.23;72.30;100689.13;5033634;28;20442;-61
2022/01/12 13:04:08;;;;;;;0.00;0.00;;;;;;;1.19;73.64;100690.09;5033772;28;20222;-61
2022/01/12 13:06:38;;;;;;;0.00;0.00;;;;;;;1.23;73.26;100685.72;5033446;28;20192;-59
2022/01/12 13:09:06;;;;;;;0.00;0.00;;;;;;;1.29;73.60;100691.53;5033451;28;20582;-59
2022/01/12 13:11:35;;;;;;;0.00;0.00;;;;;;;1.35;73.92;100685.41;5033966;28;20294;-59
2022/01/12 13:14:04;;;;;;;0.00;0.00;;;;;;;1.42;72.93;100688.66;5033705;28;20195;-56
2022/01/12 13:16:31;;;;;;;0.00;0.00;;;;;;;1.50;73.67;100689.28;5033342;28;20276;-58
2022/01/12 13:19:05;;;;;;;0.00;0.00;;;;;;;1.54;73.57;100701.19;5032710;28;20585;-56
2022/01/12 13:21:33;;;;;;;0.00;0.00;;;;;;;1.56;72.12;100708.88;5032794;28;20180;-58
2022/01/12 13:24:01;;;;;;;0.00;0.00;;;;;;;1.57;71.41;100716.56;5027395;28;20696;-56
2022/01/12 13:26:31;;;;;;;0.00;0.00;;;;;;;1.64;72.33;100714.63;5032318;28;20199;-56
2022/01/12 13:29:01;;;;;;;0.00;0.00;;;;;;;1.69;71.51;100729.97;5023907;28;20203;-57
2022/01/12 13:31:28;;;;;;;0.00;0.00;;;;;;;1.73;72.09;100739.31;5021644;28;20189;-58